sensor_id;sensor_type;location;lat;lon;timestamp;P1;durP1;ratioP1;P2;durP2;ratioP2
72797;SDS011;61084;55.816;37.036;2022-12-07T00:01:33;1.85;;;0.60;;
72797;SDS011;61084;55.816;37.036;2022-12-07T00:04:01;1.80;;;0.80;;
72797;SDS011;61084;55.816;37.036;2022-12-07T00:06:35;3.28;;;0.90;;
72797;SDS011;61084;55.816;37.036;2022-12-07T00:09:12;2.20;;;0.82;;
72797;SDS011;61084;55.816;37.036;2022-12-07T00:11:40;3.08;;;0.60;;
72797;SDS011;61084;55.816;37.036;2022-12-07T00:14:07;3.90;;;1.25;;
72797;SDS011;61084;55.816;37.036;2022-12-07T00:16:35;3.15;;;1.00;;
72797;SDS011;61084;55.816;37.036;2022-12-07T00:19:02;2.88;;;1.00;;
72797;SDS011;61084;55.816;37.036;2022-12-07T00:21:30;3.03;;;0.75;;
72797;SDS011;61084;55.816;37.036;2022-12-07T00:23:57;5.10;;;1.30;;
72797;SDS011;61084;55.816;37.036;2022-12-07T00:26:28;2.92;;;1.00;;
72797;SDS011;61084;55.816;37.036;2022-12-07T00:29:04;1.50;;;0.82;;
72797;SDS011;61084;55.816;37.036;2022-12-07T00:31:32;3.38;;;1.17;;
72797;SDS011;61084;55.816;37.036;2022-12-07T00:34:06;4.03;;;1.40;;
72797;SDS011;61084;55.816;37.036;2022-12-07T00:36:37;4.60;;;1.02;;
72797;SDS011;61084;55.816;37.036;2022-12-07T00:39:03;3.63;;;1.33;;
72797;SDS011;61084;55.816;37.036;2022-12-07T00:41:29;5.00;;;1.50;;
72797;SDS011;61084;55.816;37.036;2022-12-07T00:43:55;4.20;;;1.40;;
72797;SDS011;61084;55.816;37.036;2022-12-07T00:46:22;3.45;;;1.20;;
72797;SDS011;61084;55.816;37.036;2022-12-07T00:48:48;6.63;;;1.30;;
72797;SDS011;61084;55.816;37.036;2022-12-07T00:51:16;4.30;;;1.25;;
72797;SDS011;61084;55.816;37.036;2022-12-07T00:53:45;5.68;;;1.35;;
72797;SDS011;61084;55.816;37.036;2022-12-07T00:56:11;7.30;;;1.45;;
72797;SDS011;61084;55.816;37.036;2022-12-07T00:58:42;4.20;;;1.25;;
72797;SDS011;61084;55.816;37.036;2022-12-07T01:01:09;4.28;;;1.20;;
72797;SDS011;61084;55.816;37.036;2022-12-07T01:03:36;2.35;;;1.20;;
72797;SDS011;61084;55.816;37.036;2022-12-07T01:06:03;4.68;;;1.15;;
72797;SDS011;61084;55.816;37.036;2022-12-07T01:08:29;1.40;;;0.85;;
72797;SDS011;61084;55.816;37.036;2022-12-07T01:10:59;5.88;;;1.40;;
72797;SDS011;61084;55.816;37.036;2022-12-07T01:15:57;6.43;;;1.23;;
72797;SDS011;61084;55.816;37.036;2022-12-07T01:18:25;2.83;;;1.35;;
72797;SDS011;61084;55.816;37.036;2022-12-07T01:20:59;8.40;;;1.38;;
72797;SDS011;61084;55.816;37.036;2022-12-07T01:23:25;5.75;;;1.08;;
72797;SDS011;61084;55.816;37.036;2022-12-07T01:25:57;3.33;;;1.10;;
72797;SDS011;61084;55.816;37.036;2022-12-07T01:28:25;3.72;;;1.10;;
72797;SDS011;61084;55.816;37.036;2022-12-07T01:30:55;2.50;;;0.98;;
72797;SDS011;61084;55.816;37.036;2022-12-07T01:33:29;4.32;;;1.40;;
72797;SDS011;61084;55.816;37.036;2022-12-07T01:36:07;4.68;;;1.08;;
72797;SDS011;61084;55.816;37.036;2022-12-07T01:38:38;11.65;;;1.10;;
72797;SDS011;61084;55.816;37.036;2022-12-07T01:41:05;3.60;;;1.05;;
72797;SDS011;61084;55.816;37.036;2022-12-07T01:43:32;3.92;;;1.33;;
72797;SDS011;61084;55.816;37.036;2022-12-07T01:45:59;2.15;;;1.00;;
72797;SDS011;61084;55.816;37.036;2022-12-07T01:48:31;5.78;;;1.20;;
72797;SDS011;61084;55.816;37.036;2022-12-07T01:51:08;8.25;;;1.40;;
72797;SDS011;61084;55.816;37.036;2022-12-07T01:53:38;3.33;;;1.40;;
72797;SDS011;61084;55.816;37.036;2022-12-07T01:56:08;4.20;;;1.30;;
72797;SDS011;61084;55.816;37.036;2022-12-07T01:58:40;2.72;;;1.08;;
72797;SDS011;61084;55.816;37.036;2022-12-07T02:01:06;2.25;;;0.82;;
72797;SDS011;61084;55.816;37.036;2022-12-07T02:03:42;3.30;;;1.38;;
72797;SDS011;61084;55.816;37.036;2022-12-07T02:06:10;4.03;;;1.48;;
72797;SDS011;61084;55.816;37.036;2022-12-07T02:08:41;3.67;;;1.63;;
72797;SDS011;61084;55.816;37.036;2022-12-07T02:11:07;7.60;;;1.77;;
72797;SDS011;61084;55.816;37.036;2022-12-07T02:13:35;7.93;;;2.58;;
72797;SDS011;61084;55.816;37.036;2022-12-07T02:30:06;4.10;;;1.60;;
72797;SDS011;61084;55.816;37.036;2022-12-07T02:38:33;4.18;;;1.52;;
72797;SDS011;61084;55.816;37.036;2022-12-07T02:41:08;4.63;;;1.75;;
72797;SDS011;61084;55.816;37.036;2022-12-07T02:43:47;4.40;;;1.48;;
72797;SDS011;61084;55.816;37.036;2022-12-07T02:46:24;4.05;;;1.40;;
72797;SDS011;61084;55.816;37.036;2022-12-07T02:48:57;3.58;;;1.38;;
72797;SDS011;61084;55.816;37.036;2022-12-07T02:51:29;6.47;;;1.80;;
72797;SDS011;61084;55.816;37.036;2022-12-07T02:53:56;4.20;;;1.27;;
72797;SDS011;61084;55.816;37.036;2022-12-07T02:59:14;3.47;;;1.35;;
72797;SDS011;61084;55.816;37.036;2022-12-07T03:07:11;5.07;;;1.48;;
72797;SDS011;61084;55.816;37.036;2022-12-07T03:09:45;4.38;;;1.35;;
72797;SDS011;61084;55.816;37.036;2022-12-07T03:12:52;4.15;;;1.52;;
72797;SDS011;61084;55.816;37.036;2022-12-07T03:15:53;5.88;;;1.80;;
72797;SDS011;61084;55.816;37.036;2022-12-07T03:18:28;2.45;;;1.17;;
72797;SDS011;61084;55.816;37.036;2022-12-07T03:21:02;6.47;;;1.77;;
72797;SDS011;61084;55.816;37.036;2022-12-07T03:23:35;3.75;;;1.88;;
72797;SDS011;61084;55.816;37.036;2022-12-07T03:26:04;5.75;;;1.83;;
72797;SDS011;61084;55.816;37.036;2022-12-07T03:31:10;3.17;;;1.50;;
72797;SDS011;61084;55.816;37.036;2022-12-07T03:34:01;6.32;;;1.63;;
72797;SDS011;61084;55.816;37.036;2022-12-07T03:37:04;4.78;;;1.90;;
72797;SDS011;61084;55.816;37.036;2022-12-07T03:39:29;7.18;;;1.88;;
72797;SDS011;61084;55.816;37.036;2022-12-07T03:42:02;3.97;;;1.38;;
72797;SDS011;61084;55.816;37.036;2022-12-07T03:44:30;3.55;;;1.60;;
72797;SDS011;61084;55.816;37.036;2022-12-07T03:47:01;6.43;;;1.98;;
72797;SDS011;61084;55.816;37.036;2022-12-07T03:49:37;4.13;;;1.58;;
72797;SDS011;61084;55.816;37.036;2022-12-07T03:52:25;6.72;;;1.90;;
72797;SDS011;61084;55.816;37.036;2022-12-07T03:57:29;7.35;;;1.75;;
72797;SDS011;61084;55.816;37.036;2022-12-07T03:59:58;4.00;;;1.90;;
72797;SDS011;61084;55.816;37.036;2022-12-07T04:02:26;4.53;;;1.38;;
72797;SDS011;61084;55.816;37.036;2022-12-07T04:04:53;4.38;;;1.67;;
72797;SDS011;61084;55.816;37.036;2022-12-07T04:07:21;11.85;;;2.33;;
72797;SDS011;61084;55.816;37.036;2022-12-07T04:09:46;8.70;;;1.77;;
72797;SDS011;61084;55.816;37.036;2022-12-07T04:12:13;3.80;;;1.23;;
72797;SDS011;61084;55.816;37.036;2022-12-07T04:14:38;6.45;;;1.92;;
72797;SDS011;61084;55.816;37.036;2022-12-07T04:17:04;3.17;;;1.20;;
72797;SDS011;61084;55.816;37.036;2022-12-07T04:19:31;4.47;;;1.58;;
72797;SDS011;61084;55.816;37.036;2022-12-07T04:21:59;10.88;;;1.80;;
72797;SDS011;61084;55.816;37.036;2022-12-07T04:24:26;6.30;;;2.20;;
72797;SDS011;61084;55.816;37.036;2022-12-07T04:26:52;4.22;;;1.80;;
72797;SDS011;61084;55.816;37.036;2022-12-07T04:29:18;5.25;;;1.52;;
72797;SDS011;61084;55.816;37.036;2022-12-07T04:31:44;4.72;;;2.08;;
72797;SDS011;61084;55.816;37.036;2022-12-07T04:34:11;4.53;;;1.92;;
72797;SDS011;61084;55.816;37.036;2022-12-07T04:36:38;4.75;;;1.67;;
72797;SDS011;61084;55.816;37.036;2022-12-07T04:39:05;6.63;;;2.20;;
72797;SDS011;61084;55.816;37.036;2022-12-07T04:41:32;4.13;;;1.88;;
72797;SDS011;61084;55.816;37.036;2022-12-07T04:44:02;5.63;;;2.00;;
72797;SDS011;61084;55.816;37.036;2022-12-07T04:46:30;5.80;;;1.88;;
72797;SDS011;61084;55.816;37.036;2022-12-07T04:48:57;4.57;;;1.75;;
72797;SDS011;61084;55.816;37.036;2022-12-07T04:51:25;5.13;;;1.90;;
72797;SDS011;61084;55.816;37.036;2022-12-07T04:53:52;5.35;;;2.08;;
72797;SDS011;61084;55.816;37.036;2022-12-07T04:56:19;5.55;;;2.33;;
72797;SDS011;61084;55.816;37.036;2022-12-07T04:58:46;4.05;;;1.60;;
72797;SDS011;61084;55.816;37.036;2022-12-07T05:01:12;8.30;;;1.73;;
72797;SDS011;61084;55.816;37.036;2022-12-07T05:03:39;5.60;;;2.35;;
72797;SDS011;61084;55.816;37.036;2022-12-07T05:06:06;5.28;;;2.72;;
72797;SDS011;61084;55.816;37.036;2022-12-07T05:08:33;7.57;;;2.00;;
72797;SDS011;61084;55.816;37.036;2022-12-07T05:10:59;6.15;;;2.08;;
72797;SDS011;61084;55.816;37.036;2022-12-07T05:13:26;6.30;;;1.73;;
72797;SDS011;61084;55.816;37.036;2022-12-07T05:15:52;5.07;;;1.90;;
72797;SDS011;61084;55.816;37.036;2022-12-07T05:18:17;11.57;;;2.60;;
72797;SDS011;61084;55.816;37.036;2022-12-07T05:20:43;6.97;;;2.25;;
72797;SDS011;61084;55.816;37.036;2022-12-07T05:23:10;6.50;;;2.65;;
72797;SDS011;61084;55.816;37.036;2022-12-07T05:25:36;5.32;;;2.15;;
72797;SDS011;61084;55.816;37.036;2022-12-07T05:28:02;8.13;;;2.25;;
72797;SDS011;61084;55.816;37.036;2022-12-07T05:30:29;3.67;;;1.85;;
72797;SDS011;61084;55.816;37.036;2022-12-07T05:32:56;5.40;;;2.35;;
72797;SDS011;61084;55.816;37.036;2022-12-07T05:35:22;5.03;;;2.20;;
72797;SDS011;61084;55.816;37.036;2022-12-07T05:37:48;7.35;;;2.20;;
72797;SDS011;61084;55.816;37.036;2022-12-07T05:40:14;6.10;;;2.78;;
72797;SDS011;61084;55.816;37.036;2022-12-07T05:42:41;9.80;;;2.17;;
72797;SDS011;61084;55.816;37.036;2022-12-07T05:45:07;11.13;;;1.95;;
72797;SDS011;61084;55.816;37.036;2022-12-07T05:47:34;3.97;;;1.80;;
72797;SDS011;61084;55.816;37.036;2022-12-07T05:50:00;3.58;;;1.65;;
72797;SDS011;61084;55.816;37.036;2022-12-07T05:52:26;7.38;;;1.85;;
72797;SDS011;61084;55.816;37.036;2022-12-07T05:54:52;6.22;;;1.83;;
72797;SDS011;61084;55.816;37.036;2022-12-07T05:57:18;5.85;;;2.63;;
72797;SDS011;61084;55.816;37.036;2022-12-07T05:59:44;3.92;;;1.58;;
72797;SDS011;61084;55.816;37.036;2022-12-07T06:02:11;9.75;;;2.17;;
72797;SDS011;61084;55.816;37.036;2022-12-07T06:04:40;6.75;;;1.35;;
72797;SDS011;61084;55.816;37.036;2022-12-07T06:07:08;4.40;;;1.85;;
72797;SDS011;61084;55.816;37.036;2022-12-07T06:09:34;3.65;;;1.67;;
72797;SDS011;61084;55.816;37.036;2022-12-07T06:12:01;6.65;;;1.63;;
72797;SDS011;61084;55.816;37.036;2022-12-07T06:14:45;8.45;;;2.83;;
72797;SDS011;61084;55.816;37.036;2022-12-07T06:17:11;7.40;;;1.67;;
72797;SDS011;61084;55.816;37.036;2022-12-07T06:19:38;5.07;;;1.65;;
72797;SDS011;61084;55.816;37.036;2022-12-07T06:22:04;4.28;;;1.67;;
72797;SDS011;61084;55.816;37.036;2022-12-07T06:24:31;3.78;;;1.85;;
72797;SDS011;61084;55.816;37.036;2022-12-07T06:26:57;7.75;;;2.67;;
72797;SDS011;61084;55.816;37.036;2022-12-07T06:29:23;6.85;;;2.70;;
72797;SDS011;61084;55.816;37.036;2022-12-07T06:31:49;9.63;;;2.58;;
72797;SDS011;61084;55.816;37.036;2022-12-07T06:34:16;8.90;;;2.95;;
72797;SDS011;61084;55.816;37.036;2022-12-07T06:36:44;5.97;;;2.47;;
72797;SDS011;61084;55.816;37.036;2022-12-07T06:39:12;5.60;;;1.90;;
72797;SDS011;61084;55.816;37.036;2022-12-07T06:41:38;7.72;;;2.42;;
72797;SDS011;61084;55.816;37.036;2022-12-07T06:44:05;6.10;;;2.13;;
72797;SDS011;61084;55.816;37.036;2022-12-07T06:46:32;6.80;;;2.42;;
72797;SDS011;61084;55.816;37.036;2022-12-07T06:48:58;7.47;;;2.47;;
72797;SDS011;61084;55.816;37.036;2022-12-07T06:51:24;7.97;;;2.70;;
72797;SDS011;61084;55.816;37.036;2022-12-07T06:53:49;6.65;;;2.00;;
72797;SDS011;61084;55.816;37.036;2022-12-07T06:56:15;5.60;;;2.38;;
72797;SDS011;61084;55.816;37.036;2022-12-07T06:58:41;6.18;;;1.95;;
72797;SDS011;61084;55.816;37.036;2022-12-07T07:01:14;4.40;;;2.15;;
72797;SDS011;61084;55.816;37.036;2022-12-07T07:03:41;2.58;;;1.23;;
72797;SDS011;61084;55.816;37.036;2022-12-07T07:06:07;8.07;;;2.58;;
72797;SDS011;61084;55.816;37.036;2022-12-07T07:08:34;5.70;;;2.50;;
72797;SDS011;61084;55.816;37.036;2022-12-07T07:11:01;6.40;;;2.67;;
72797;SDS011;61084;55.816;37.036;2022-12-07T07:13:27;8.88;;;2.50;;
72797;SDS011;61084;55.816;37.036;2022-12-07T07:15:53;6.90;;;2.15;;
72797;SDS011;61084;55.816;37.036;2022-12-07T07:18:19;6.80;;;2.30;;
72797;SDS011;61084;55.816;37.036;2022-12-07T07:20:45;3.20;;;1.58;;
72797;SDS011;61084;55.816;37.036;2022-12-07T07:23:11;5.55;;;2.75;;
72797;SDS011;61084;55.816;37.036;2022-12-07T07:25:36;7.90;;;2.78;;
72797;SDS011;61084;55.816;37.036;2022-12-07T07:28:03;7.70;;;2.50;;
72797;SDS011;61084;55.816;37.036;2022-12-07T07:30:29;3.00;;;1.92;;
72797;SDS011;61084;55.816;37.036;2022-12-07T07:32:59;8.05;;;2.65;;
72797;SDS011;61084;55.816;37.036;2022-12-07T07:35:27;6.93;;;2.20;;
72797;SDS011;61084;55.816;37.036;2022-12-07T07:37:55;7.30;;;2.70;;
72797;SDS011;61084;55.816;37.036;2022-12-07T07:40:21;7.38;;;2.15;;
72797;SDS011;61084;55.816;37.036;2022-12-07T07:42:48;7.75;;;2.28;;
72797;SDS011;61084;55.816;37.036;2022-12-07T07:45:15;5.43;;;2.05;;
72797;SDS011;61084;55.816;37.036;2022-12-07T07:47:41;8.02;;;2.30;;
72797;SDS011;61084;55.816;37.036;2022-12-07T07:50:07;2.65;;;1.50;;
72797;SDS011;61084;55.816;37.036;2022-12-07T07:52:33;5.25;;;2.13;;
72797;SDS011;61084;55.816;37.036;2022-12-07T07:54:59;2.10;;;1.27;;
72797;SDS011;61084;55.816;37.036;2022-12-07T07:57:24;5.90;;;2.17;;
72797;SDS011;61084;55.816;37.036;2022-12-07T07:59:50;8.52;;;2.72;;
72797;SDS011;61084;55.816;37.036;2022-12-07T08:02:17;5.38;;;2.45;;
72797;SDS011;61084;55.816;37.036;2022-12-07T08:04:44;4.63;;;2.28;;
72797;SDS011;61084;55.816;37.036;2022-12-07T08:07:11;6.03;;;2.35;;
72797;SDS011;61084;55.816;37.036;2022-12-07T08:09:37;6.78;;;2.15;;
72797;SDS011;61084;55.816;37.036;2022-12-07T08:12:03;4.97;;;2.72;;
72797;SDS011;61084;55.816;37.036;2022-12-07T08:14:29;5.45;;;2.00;;
72797;SDS011;61084;55.816;37.036;2022-12-07T08:16:56;4.93;;;2.28;;
72797;SDS011;61084;55.816;37.036;2022-12-07T08:19:22;7.18;;;2.28;;
72797;SDS011;61084;55.816;37.036;2022-12-07T08:21:48;4.68;;;2.42;;
72797;SDS011;61084;55.816;37.036;2022-12-07T08:24:14;5.53;;;2.33;;
72797;SDS011;61084;55.816;37.036;2022-12-07T08:26:40;7.22;;;2.42;;
72797;SDS011;61084;55.816;37.036;2022-12-07T08:29:06;7.90;;;2.28;;
72797;SDS011;61084;55.816;37.036;2022-12-07T08:31:32;5.55;;;2.08;;
72797;SDS011;61084;55.816;37.036;2022-12-07T08:33:58;4.70;;;2.08;;
72797;SDS011;61084;55.816;37.036;2022-12-07T08:36:24;6.57;;;2.88;;
72797;SDS011;61084;55.816;37.036;2022-12-07T08:38:50;3.50;;;1.70;;
72797;SDS011;61084;55.816;37.036;2022-12-07T08:41:15;12.00;;;1.73;;
72797;SDS011;61084;55.816;37.036;2022-12-07T08:43:42;5.18;;;2.38;;
72797;SDS011;61084;55.816;37.036;2022-12-07T08:46:17;5.50;;;2.40;;
72797;SDS011;61084;55.816;37.036;2022-12-07T08:51:48;8.35;;;2.38;;
72797;SDS011;61084;55.816;37.036;2022-12-07T08:54:15;5.57;;;2.35;;
72797;SDS011;61084;55.816;37.036;2022-12-07T08:56:44;6.13;;;2.83;;
72797;SDS011;61084;55.816;37.036;2022-12-07T08:59:12;3.88;;;1.73;;
72797;SDS011;61084;55.816;37.036;2022-12-07T09:01:40;4.72;;;2.20;;
72797;SDS011;61084;55.816;37.036;2022-12-07T09:04:05;4.28;;;1.95;;
72797;SDS011;61084;55.816;37.036;2022-12-07T09:06:31;1.73;;;0.90;;
72797;SDS011;61084;55.816;37.036;2022-12-07T09:08:58;4.35;;;2.00;;
72797;SDS011;61084;55.816;37.036;2022-12-07T09:11:26;7.05;;;2.08;;
72797;SDS011;61084;55.816;37.036;2022-12-07T09:13:52;6.47;;;2.70;;
72797;SDS011;61084;55.816;37.036;2022-12-07T09:16:18;7.53;;;2.40;;
72797;SDS011;61084;55.816;37.036;2022-12-07T09:18:44;6.07;;;2.72;;
72797;SDS011;61084;55.816;37.036;2022-12-07T09:21:10;10.35;;;2.33;;
72797;SDS011;61084;55.816;37.036;2022-12-07T09:23:36;6.72;;;2.40;;
72797;SDS011;61084;55.816;37.036;2022-12-07T09:26:02;7.20;;;1.75;;
72797;SDS011;61084;55.816;37.036;2022-12-07T09:28:30;5.93;;;1.80;;
72797;SDS011;61084;55.816;37.036;2022-12-07T09:30:56;8.07;;;2.90;;
72797;SDS011;61084;55.816;37.036;2022-12-07T09:33:22;8.93;;;1.95;;
72797;SDS011;61084;55.816;37.036;2022-12-07T09:35:48;3.88;;;1.77;;
72797;SDS011;61084;55.816;37.036;2022-12-07T09:38:15;6.47;;;2.53;;
72797;SDS011;61084;55.816;37.036;2022-12-07T09:40:42;6.05;;;2.10;;
72797;SDS011;61084;55.816;37.036;2022-12-07T09:43:16;6.32;;;2.30;;
72797;SDS011;61084;55.816;37.036;2022-12-07T09:45:46;11.77;;;2.95;;
72797;SDS011;61084;55.816;37.036;2022-12-07T09:48:34;7.07;;;1.65;;
72797;SDS011;61084;55.816;37.036;2022-12-07T09:54:00;8.13;;;2.45;;
72797;SDS011;61084;55.816;37.036;2022-12-07T09:56:28;5.05;;;2.45;;
72797;SDS011;61084;55.816;37.036;2022-12-07T09:58:59;5.95;;;2.25;;
72797;SDS011;61084;55.816;37.036;2022-12-07T10:01:29;3.30;;;1.45;;
72797;SDS011;61084;55.816;37.036;2022-12-07T10:04:16;6.60;;;2.05;;
72797;SDS011;61084;55.816;37.036;2022-12-07T10:09:14;7.20;;;2.70;;
72797;SDS011;61084;55.816;37.036;2022-12-07T10:14:33;6.90;;;2.05;;
72797;SDS011;61084;55.816;37.036;2022-12-07T10:17:00;2.95;;;1.55;;
72797;SDS011;61084;55.816;37.036;2022-12-07T10:19:30;7.53;;;2.70;;
72797;SDS011;61084;55.816;37.036;2022-12-07T10:22:14;4.25;;;2.00;;
72797;SDS011;61084;55.816;37.036;2022-12-07T10:24:47;4.15;;;1.90;;
72797;SDS011;61084;55.816;37.036;2022-12-07T10:30:12;3.60;;;1.83;;
72797;SDS011;61084;55.816;37.036;2022-12-07T10:32:40;9.15;;;2.13;;
72797;SDS011;61084;55.816;37.036;2022-12-07T10:35:18;5.20;;;2.78;;
72797;SDS011;61084;55.816;37.036;2022-12-07T10:37:47;4.50;;;2.10;;
72797;SDS011;61084;55.816;37.036;2022-12-07T10:43:27;11.18;;;2.80;;
72797;SDS011;61084;55.816;37.036;2022-12-07T10:46:13;8.40;;;2.22;;
72797;SDS011;61084;55.816;37.036;2022-12-07T10:57:29;6.90;;;2.35;;
72797;SDS011;61084;55.816;37.036;2022-12-07T11:03:05;4.72;;;2.15;;
72797;SDS011;61084;55.816;37.036;2022-12-07T11:14:06;3.33;;;1.38;;
72797;SDS011;61084;55.816;37.036;2022-12-07T11:16:48;8.95;;;1.90;;
72797;SDS011;61084;55.816;37.036;2022-12-07T11:19:22;7.75;;;2.20;;
72797;SDS011;61084;55.816;37.036;2022-12-07T11:22:09;3.67;;;1.98;;
72797;SDS011;61084;55.816;37.036;2022-12-07T11:25:02;6.20;;;2.40;;
72797;SDS011;61084;55.816;37.036;2022-12-07T11:33:20;6.53;;;2.30;;
72797;SDS011;61084;55.816;37.036;2022-12-07T11:36:07;5.82;;;2.03;;
72797;SDS011;61084;55.816;37.036;2022-12-07T11:38:52;11.27;;;2.17;;
72797;SDS011;61084;55.816;37.036;2022-12-07T11:41:27;8.93;;;2.20;;
72797;SDS011;61084;55.816;37.036;2022-12-07T11:52:08;5.03;;;2.15;;
72797;SDS011;61084;55.816;37.036;2022-12-07T11:54:46;7.60;;;2.50;;
72797;SDS011;61084;55.816;37.036;2022-12-07T11:57:20;6.07;;;2.50;;
72797;SDS011;61084;55.816;37.036;2022-12-07T11:59:56;6.03;;;2.67;;
72797;SDS011;61084;55.816;37.036;2022-12-07T12:02:27;6.05;;;2.25;;
72797;SDS011;61084;55.816;37.036;2022-12-07T12:05:19;7.20;;;2.83;;
72797;SDS011;61084;55.816;37.036;2022-12-07T12:07:50;15.95;;;5.32;;
72797;SDS011;61084;55.816;37.036;2022-12-07T12:10:27;6.72;;;2.35;;
72797;SDS011;61084;55.816;37.036;2022-12-07T12:15:42;7.88;;;2.15;;
72797;SDS011;61084;55.816;37.036;2022-12-07T12:21:07;7.85;;;2.80;;
72797;SDS011;61084;55.816;37.036;2022-12-07T12:23:56;12.52;;;2.70;;
72797;SDS011;61084;55.816;37.036;2022-12-07T12:26:24;7.25;;;2.90;;
72797;SDS011;61084;55.816;37.036;2022-12-07T12:28:55;5.00;;;1.98;;
72797;SDS011;61084;55.816;37.036;2022-12-07T12:31:41;9.88;;;2.70;;
72797;SDS011;61084;55.816;37.036;2022-12-07T12:42:58;7.57;;;2.47;;
72797;SDS011;61084;55.816;37.036;2022-12-07T12:45:28;11.75;;;3.15;;
72797;SDS011;61084;55.816;37.036;2022-12-07T12:47:56;12.88;;;3.35;;
72797;SDS011;61084;55.816;37.036;2022-12-07T12:50:23;7.57;;;2.53;;
72797;SDS011;61084;55.816;37.036;2022-12-07T12:53:12;11.90;;;3.03;;
72797;SDS011;61084;55.816;37.036;2022-12-07T13:03:23;11.10;;;3.30;;
72797;SDS011;61084;55.816;37.036;2022-12-07T13:06:35;12.80;;;2.30;;
72797;SDS011;61084;55.816;37.036;2022-12-07T13:08:44;7.70;;;3.25;;
72797;SDS011;61084;55.816;37.036;2022-12-07T13:17:10;9.75;;;3.13;;
72797;SDS011;61084;55.816;37.036;2022-12-07T13:25:02;6.32;;;2.78;;
72797;SDS011;61084;55.816;37.036;2022-12-07T13:27:37;8.77;;;3.58;;
72797;SDS011;61084;55.816;37.036;2022-12-07T13:30:12;6.88;;;2.30;;
72797;SDS011;61084;55.816;37.036;2022-12-07T13:32:40;12.85;;;3.92;;
72797;SDS011;61084;55.816;37.036;2022-12-07T13:35:52;8.05;;;3.17;;
72797;SDS011;61084;55.816;37.036;2022-12-07T13:41:02;10.48;;;3.40;;
72797;SDS011;61084;55.816;37.036;2022-12-07T13:43:30;7.88;;;3.88;;
72797;SDS011;61084;55.816;37.036;2022-12-07T13:45:58;10.48;;;3.28;;
72797;SDS011;61084;55.816;37.036;2022-12-07T13:48:36;9.55;;;3.83;;
72797;SDS011;61084;55.816;37.036;2022-12-07T13:51:16;8.25;;;3.33;;
72797;SDS011;61084;55.816;37.036;2022-12-07T13:53:48;9.27;;;2.90;;
72797;SDS011;61084;55.816;37.036;2022-12-07T13:56:28;10.43;;;3.40;;
72797;SDS011;61084;55.816;37.036;2022-12-07T13:58:58;7.70;;;3.63;;
72797;SDS011;61084;55.816;37.036;2022-12-07T14:01:25;15.07;;;4.30;;
72797;SDS011;61084;55.816;37.036;2022-12-07T14:03:51;10.23;;;3.88;;
72797;SDS011;61084;55.816;37.036;2022-12-07T14:08:51;12.48;;;5.10;;
72797;SDS011;61084;55.816;37.036;2022-12-07T14:11:31;10.88;;;4.40;;
72797;SDS011;61084;55.816;37.036;2022-12-07T14:13:58;5.32;;;2.58;;
72797;SDS011;61084;55.816;37.036;2022-12-07T14:16:34;7.20;;;3.13;;
72797;SDS011;61084;55.816;37.036;2022-12-07T14:19:03;10.02;;;3.95;;
72797;SDS011;61084;55.816;37.036;2022-12-07T14:21:32;16.85;;;5.68;;
72797;SDS011;61084;55.816;37.036;2022-12-07T14:24:18;13.48;;;5.03;;
72797;SDS011;61084;55.816;37.036;2022-12-07T14:26:48;11.45;;;3.60;;
72797;SDS011;61084;55.816;37.036;2022-12-07T14:29:19;11.75;;;4.45;;
72797;SDS011;61084;55.816;37.036;2022-12-07T14:31:52;9.48;;;3.70;;
72797;SDS011;61084;55.816;37.036;2022-12-07T14:34:22;6.63;;;2.45;;
72797;SDS011;61084;55.816;37.036;2022-12-07T14:36:48;10.43;;;3.22;;
72797;SDS011;61084;55.816;37.036;2022-12-07T14:39:15;8.18;;;3.70;;
72797;SDS011;61084;55.816;37.036;2022-12-07T14:41:41;10.70;;;3.63;;
72797;SDS011;61084;55.816;37.036;2022-12-07T14:44:16;10.77;;;4.18;;
72797;SDS011;61084;55.816;37.036;2022-12-07T14:46:43;14.27;;;4.00;;
72797;SDS011;61084;55.816;37.036;2022-12-07T14:49:09;14.73;;;3.60;;
72797;SDS011;61084;55.816;37.036;2022-12-07T14:51:35;11.60;;;4.55;;
72797;SDS011;61084;55.816;37.036;2022-12-07T14:54:04;13.18;;;4.07;;
72797;SDS011;61084;55.816;37.036;2022-12-07T14:56:31;16.27;;;4.18;;
72797;SDS011;61084;55.816;37.036;2022-12-07T14:58:57;9.52;;;4.05;;
72797;SDS011;61084;55.816;37.036;2022-12-07T15:01:23;18.17;;;3.88;;
72797;SDS011;61084;55.816;37.036;2022-12-07T15:03:49;17.80;;;4.45;;
72797;SDS011;61084;55.816;37.036;2022-12-07T15:06:15;11.00;;;4.05;;
72797;SDS011;61084;55.816;37.036;2022-12-07T15:08:42;14.30;;;4.18;;
72797;SDS011;61084;55.816;37.036;2022-12-07T15:11:12;3.35;;;2.20;;
72797;SDS011;61084;55.816;37.036;2022-12-07T15:13:39;8.43;;;3.72;;
72797;SDS011;61084;55.816;37.036;2022-12-07T15:16:23;14.00;;;2.80;;
72797;SDS011;61084;55.816;37.036;2022-12-07T15:18:49;18.45;;;4.53;;
72797;SDS011;61084;55.816;37.036;2022-12-07T15:21:16;4.97;;;1.83;;
72797;SDS011;61084;55.816;37.036;2022-12-07T15:23:41;14.60;;;3.35;;
72797;SDS011;61084;55.816;37.036;2022-12-07T15:26:09;9.68;;;3.95;;
72797;SDS011;61084;55.816;37.036;2022-12-07T15:28:35;6.25;;;1.95;;
72797;SDS011;61084;55.816;37.036;2022-12-07T15:31:01;11.18;;;3.20;;
72797;SDS011;61084;55.816;37.036;2022-12-07T15:33:27;5.65;;;2.50;;
72797;SDS011;61084;55.816;37.036;2022-12-07T15:35:53;7.20;;;3.35;;
72797;SDS011;61084;55.816;37.036;2022-12-07T15:38:19;8.38;;;3.35;;
72797;SDS011;61084;55.816;37.036;2022-12-07T15:40:48;8.90;;;4.22;;
72797;SDS011;61084;55.816;37.036;2022-12-07T15:43:14;4.78;;;2.20;;
72797;SDS011;61084;55.816;37.036;2022-12-07T15:45:58;5.90;;;2.95;;
72797;SDS011;61084;55.816;37.036;2022-12-07T15:48:24;7.85;;;3.42;;
72797;SDS011;61084;55.816;37.036;2022-12-07T15:50:50;5.35;;;2.95;;
72797;SDS011;61084;55.816;37.036;2022-12-07T15:53:16;12.77;;;3.92;;
72797;SDS011;61084;55.816;37.036;2022-12-07T15:55:42;11.00;;;5.15;;
72797;SDS011;61084;55.816;37.036;2022-12-07T15:58:08;12.80;;;3.75;;
72797;SDS011;61084;55.816;37.036;2022-12-07T16:00:34;14.00;;;3.67;;
72797;SDS011;61084;55.816;37.036;2022-12-07T16:03:00;13.98;;;4.30;;
72797;SDS011;61084;55.816;37.036;2022-12-07T16:05:26;11.48;;;3.40;;
72797;SDS011;61084;55.816;37.036;2022-12-07T16:07:52;10.07;;;4.05;;
72797;SDS011;61084;55.816;37.036;2022-12-07T16:10:17;11.07;;;3.90;;
72797;SDS011;61084;55.816;37.036;2022-12-07T16:12:43;6.53;;;2.22;;
72797;SDS011;61084;55.816;37.036;2022-12-07T16:15:09;10.38;;;3.72;;
72797;SDS011;61084;55.816;37.036;2022-12-07T16:17:35;8.52;;;3.10;;
72797;SDS011;61084;55.816;37.036;2022-12-07T16:20:01;10.88;;;3.80;;
72797;SDS011;61084;55.816;37.036;2022-12-07T16:22:28;8.60;;;3.85;;
72797;SDS011;61084;55.816;37.036;2022-12-07T16:24:55;6.15;;;2.85;;
72797;SDS011;61084;55.816;37.036;2022-12-07T16:27:20;9.98;;;3.80;;
72797;SDS011;61084;55.816;37.036;2022-12-07T16:29:46;9.00;;;3.30;;
72797;SDS011;61084;55.816;37.036;2022-12-07T16:32:12;16.13;;;3.97;;
72797;SDS011;61084;55.816;37.036;2022-12-07T16:34:39;10.27;;;2.85;;
72797;SDS011;61084;55.816;37.036;2022-12-07T16:37:05;11.35;;;3.67;;
72797;SDS011;61084;55.816;37.036;2022-12-07T16:39:30;2.92;;;1.02;;
72797;SDS011;61084;55.816;37.036;2022-12-07T16:41:57;9.45;;;3.33;;
72797;SDS011;61084;55.816;37.036;2022-12-07T16:44:23;11.55;;;3.55;;
72797;SDS011;61084;55.816;37.036;2022-12-07T16:46:49;7.72;;;2.83;;
72797;SDS011;61084;55.816;37.036;2022-12-07T16:49:15;10.80;;;4.13;;
72797;SDS011;61084;55.816;37.036;2022-12-07T16:51:41;10.90;;;3.92;;
72797;SDS011;61084;55.816;37.036;2022-12-07T16:54:11;7.30;;;3.47;;